createdAt,value
2023-02-11T00:00:31.275Z,100061.75
2023-02-11T00:01:36.297Z,100058.53
2023-02-11T00:02:39.274Z,100061.59
2023-02-11T00:03:42.235Z,100052.44
2023-02-11T00:04:45.149Z,100054.41
2023-02-11T00:06:01.128Z,100055.34
2023-02-11T00:07:04.513Z,100053.91
2023-02-11T00:08:07.655Z,100053.72
2023-02-11T00:09:11.406Z,100053.53
2023-02-11T00:10:14.540Z,100052.78
2023-02-11T00:11:20.382Z,100049.28
2023-02-11T00:12:23.694Z,100047.84
2023-02-11T00:13:27.416Z,100049.59
2023-02-11T00:14:30.652Z,100044.88
2023-02-11T00:15:33.784Z,100043.44
2023-02-11T00:16:36.999Z,100047.44
2023-02-11T00:17:40.143Z,100044.59
2023-02-11T00:18:43.847Z,100043.75
2023-02-11T00:19:50.641Z,100036.91
2023-02-11T00:20:54.177Z,100029.22
2023-02-11T00:21:57.060Z,100035.28
2023-02-11T00:23:00.054Z,100032.38
2023-02-11T00:24:03.016Z,100030.91
2023-02-11T00:25:06.474Z,100030.25
2023-02-11T00:26:17.747Z,100026.94
2023-02-11T00:27:20.943Z,100022.12
2023-02-11T00:28:24.066Z,100028.88
2023-02-11T00:29:27.139Z,100029.00
2023-02-11T00:30:30.495Z,100036.38
2023-02-11T00:31:35.199Z,100034.13
2023-02-11T00:32:38.384Z,100041.50
2023-02-11T00:33:42.203Z,100031.72
2023-02-11T00:34:45.229Z,100037.44
2023-02-11T00:35:48.700Z,100025.59
2023-02-11T00:36:52.761Z,100032.97
2023-02-11T00:37:56.129Z,100032.94
2023-02-11T00:38:59.834Z,100029.06
2023-02-11T00:40:06.830Z,100033.66
2023-02-11T00:41:10.620Z,100029.75
2023-02-11T00:42:15.290Z,100032.25
2023-02-11T00:43:18.445Z,100026.03
2023-02-11T00:44:21.682Z,100030.81
2023-02-11T00:45:24.670Z,100026.75
2023-02-11T00:46:28.133Z,100028.25
2023-02-11T00:47:31.451Z,100020.53
2023-02-11T00:48:34.969Z,100025.47
2023-02-11T00:49:40.771Z,100026.06
2023-02-11T00:50:44.046Z,100027.66
2023-02-11T00:51:46.973Z,100033.75
2023-02-11T00:52:49.946Z,100027.81
2023-02-11T00:53:53.766Z,100030.78
2023-02-11T00:54:56.780Z,100029.66
2023-02-11T00:56:01.286Z,100032.69
2023-02-11T00:57:04.744Z,100032.50
2023-02-11T00:58:07.864Z,100027.56
2023-02-11T00:59:10.977Z,100019.41
2023-02-11T01:00:15.643Z,100010.94
2023-02-11T01:01:18.832Z,100019.41
2023-02-11T01:02:22.099Z,100013.63
2023-02-11T01:03:26.176Z,100012.81
2023-02-11T01:04:29.355Z,100012.19
2023-02-11T01:05:32.713Z,100015.56
2023-02-11T01:06:35.804Z,100004.50
2023-02-11T01:07:38.878Z,100009.00
2023-02-11T01:08:42.603Z,100011.06
2023-02-11T01:09:45.598Z,100001.41
2023-02-11T01:11:01.243Z,100002.72
2023-02-11T01:12:04.634Z,99997.44
2023-02-11T01:13:07.549Z,100005.56
2023-02-11T01:14:10.737Z,99998.06
2023-02-11T01:15:16.841Z,99993.56
2023-02-11T01:16:20.769Z,99989.09
2023-02-11T01:17:24.079Z,99997.75
2023-02-11T01:18:27.820Z,99988.78
2023-02-11T01:19:30.793Z,99982.69
2023-02-11T01:20:33.792Z,99984.16
2023-02-11T01:21:36.788Z,99980.16
2023-02-11T01:22:39.896Z,99986.53
2023-02-11T01:23:43.037Z,99976.72
2023-02-11T01:24:45.990Z,99982.50
2023-02-11T01:25:49.789Z,99979.94
2023-02-11T01:26:53.344Z,99974.81
2023-02-11T01:27:56.415Z,99981.88
2023-02-11T01:29:01.556Z,99975.66
2023-02-11T01:30:07.046Z,99978.34
2023-02-11T01:31:10.188Z,99982.44
2023-02-11T01:32:13.281Z,99978.34
2023-02-11T01:33:16.443Z,99970.16
2023-02-11T01:34:19.483Z,99970.00
2023-02-11T01:35:22.721Z,99967.31
2023-02-11T01:36:25.984Z,99974.69
2023-02-11T01:37:29.046Z,99974.03
2023-02-11T01:38:33.132Z,99969.03
2023-02-11T01:39:36.466Z,99973.69
2023-02-11T01:40:39.477Z,99974.84
2023-02-11T01:41:42.462Z,99970.34
2023-02-11T01:42:45.574Z,99960.91
2023-02-11T01:43:50.267Z,99973.69
2023-02-11T01:44:54.609Z,99969.22
2023-02-11T01:46:22.614Z,99966.97
2023-02-11T01:47:25.822Z,99971.75
2023-02-11T01:48:36.795Z,99967.88
2023-02-11T01:49:44.780Z,99968.53
2023-02-11T01:50:51.424Z,99967.72
2023-02-11T01:52:06.238Z,99969.66
2023-02-11T01:53:29.174Z,99960.22
2023-02-11T01:54:59.984Z,99972.53
2023-02-11T01:56:22.624Z,99968.41
2023-02-11T01:57:30.102Z,99973.09
2023-02-11T01:58:37.725Z,99964.88
2023-02-11T01:59:50.781Z,99976.94
2023-02-11T02:00:54.788Z,99973.38
2023-02-11T02:02:01.187Z,99970.91
2023-02-11T02:03:20.441Z,99969.31
2023-02-11T02:04:31.569Z,99963.56
2023-02-11T02:05:44.038Z,99963.41
2023-02-11T02:07:03.661Z,99965.34
2023-02-11T02:08:26.221Z,99963.72
2023-02-11T02:09:34.824Z,99961.94
2023-02-11T02:10:42.659Z,99965.13
2023-02-11T02:11:45.662Z,99960.72
2023-02-11T02:12:48.878Z,99964.44
2023-02-11T02:13:52.024Z,99958.81
2023-02-11T02:15:22.081Z,99962.19
2023-02-11T02:16:36.368Z,99960.25
2023-02-11T02:17:55.220Z,99959.78
2023-02-11T02:19:31.349Z,99958.13
2023-02-11T02:20:40.157Z,99960.69
2023-02-11T02:22:17.159Z,99965.34
2023-02-11T02:23:36.058Z,99958.22
2023-02-11T02:24:57.052Z,99962.56
2023-02-11T02:26:36.220Z,99959.66
2023-02-11T02:27:45.235Z,99965.44
2023-02-11T02:29:06.404Z,99972.31
2023-02-11T02:30:48.331Z,99967.03
2023-02-11T02:32:10.533Z,99965.13
2023-02-11T02:33:25.771Z,99962.03
2023-02-11T02:34:48.763Z,99958.19
2023-02-11T02:36:15.338Z,99959.19
2023-02-11T02:37:39.898Z,99950.28
2023-02-11T02:38:53.379Z,99948.88
2023-02-11T02:40:00.213Z,99944.22
2023-02-11T02:41:32.054Z,99942.28
2023-02-11T02:42:36.788Z,99942.59
2023-02-11T02:43:46.670Z,99940.97
2023-02-11T02:44:52.315Z,99932.03
2023-02-11T02:45:55.818Z,99944.84
2023-02-11T02:46:59.338Z,99950.47
2023-02-11T02:48:02.896Z,99939.22
2023-02-11T02:49:13.022Z,99941.81
2023-02-11T02:50:20.113Z,99936.84
2023-02-11T02:51:56.958Z,99945.16
2023-02-11T02:53:17.540Z,99939.37
2023-02-11T02:54:57.661Z,99943.56
2023-02-11T02:56:33.219Z,99940.56
2023-02-11T02:58:02.693Z,99943.75
2023-02-11T02:59:14.088Z,99938.31
2023-02-11T03:00:49.868Z,99940.25
2023-02-11T03:02:18.927Z,99937.34
2023-02-11T03:03:30.889Z,99926.78
2023-02-11T03:04:54.091Z,99935.44
2023-02-11T03:06:18.110Z,99930.31
2023-02-11T03:07:33.179Z,99930.44
2023-02-11T03:09:09.704Z,99932.03
2023-02-11T03:10:19.865Z,99925.81
2023-02-11T03:11:24.791Z,99927.59
2023-02-11T03:12:32.265Z,99929.06
2023-02-11T03:13:38.063Z,99920.88
2023-02-11T03:14:42.351Z,99928.12
2023-02-11T03:15:49.864Z,99921.53
2023-02-11T03:16:57.846Z,99917.84
2023-02-11T03:18:04.094Z,99924.06
2023-02-11T03:19:14.262Z,99919.25
2023-02-11T03:20:21.074Z,99911.75
2023-02-11T03:21:25.978Z,99919.31
2023-02-11T03:22:43.530Z,99921.84
2023-02-11T03:23:56.725Z,99927.44
2023-02-11T03:25:02.413Z,99918.47
2023-02-11T03:26:14.418Z,99916.47
2023-02-11T03:27:23.971Z,99917.09
2023-02-11T03:28:35.126Z,99921.16
2023-02-11T03:29:51.906Z,99920.66
2023-02-11T03:31:13.864Z,99917.75
2023-02-11T03:32:30.962Z,99909.63
2023-02-11T03:34:09.088Z,99918.00
2023-02-11T03:35:46.459Z,99908.41
2023-02-11T03:37:13.310Z,99915.44
2023-02-11T03:38:31.345Z,99915.13
2023-02-11T03:39:43.665Z,99906.31
2023-02-11T03:40:47.860Z,99905.97
2023-02-11T03:41:53.340Z,99910.59
2023-02-11T03:43:05.777Z,99905.12
2023-02-11T03:44:11.070Z,99902.09
2023-02-11T03:45:19.074Z,99900.66
2023-02-11T03:46:31.075Z,99902.13
2023-02-11T03:47:37.441Z,99897.81
2023-02-11T03:48:45.152Z,99888.03
2023-02-11T03:49:50.998Z,99887.59
2023-02-11T03:50:55.517Z,99887.06
2023-02-11T03:51:59.666Z,99880.81
2023-02-11T03:53:03.998Z,99884.22
2023-02-11T03:54:12.313Z,99886.44
2023-02-11T03:55:21.490Z,99885.47
2023-02-11T03:56:29.762Z,99880.22
2023-02-11T03:57:34.856Z,99881.13
2023-02-11T03:58:38.068Z,99885.81
2023-02-11T03:59:59.224Z,99868.53
2023-02-11T04:01:03.090Z,99878.59
2023-02-11T04:02:06.381Z,99876.63
2023-02-11T04:03:10.754Z,99872.97
2023-02-11T04:04:14.222Z,99871.84
2023-02-11T04:05:17.278Z,99870.13
2023-02-11T04:06:20.304Z,99873.13
2023-02-11T04:07:23.711Z,99864.03
2023-02-11T04:08:26.816Z,99860.97
2023-02-11T04:09:30.371Z,99866.28
2023-02-11T04:10:33.979Z,99873.81
2023-02-11T04:11:37.076Z,99862.59
2023-02-11T04:12:40.144Z,99862.28
2023-02-11T04:13:43.132Z,99856.53
2023-02-11T04:14:46.546Z,99856.84
2023-02-11T04:15:49.626Z,99855.22
2023-02-11T04:16:52.991Z,99849.97
2023-02-11T04:17:56.009Z,99860.34
2023-02-11T04:18:59.369Z,99849.47
2023-02-11T04:20:02.570Z,99850.44
2023-02-11T04:21:06.114Z,99853.78
2023-02-11T04:22:09.513Z,99846.41
2023-02-11T04:23:12.670Z,99847.22
2023-02-11T04:24:15.691Z,99845.28
2023-02-11T04:25:18.811Z,99848.81
2023-02-11T04:26:21.926Z,99844.16
2023-02-11T04:27:25.084Z,99850.09
2023-02-11T04:28:29.909Z,99845.28
2023-02-11T04:29:33.071Z,99848.53
2023-02-11T04:30:36.296Z,99850.44
2023-02-11T04:31:39.358Z,99848.34
2023-02-11T04:32:42.438Z,99841.94
2023-02-11T04:33:45.694Z,99846.72
2023-02-11T04:34:49.093Z,99841.16
2023-02-11T04:35:52.520Z,99845.62
2023-02-11T04:36:55.719Z,99846.25
2023-02-11T04:37:58.859Z,99841.59
2023-02-11T04:39:02.025Z,99851.38
2023-02-11T04:40:05.455Z,99843.38
2023-02-11T04:41:08.487Z,99849.28
2023-02-11T04:42:11.525Z,99849.47
2023-02-11T04:43:14.530Z,99855.06
2023-02-11T04:44:17.540Z,99847.22
2023-02-11T04:45:20.720Z,99856.94
2023-02-11T04:46:23.738Z,99852.00
2023-02-11T04:47:26.909Z,99851.69
2023-02-11T04:48:30.157Z,99844.81
2023-02-11T04:49:33.321Z,99849.44
2023-02-11T04:50:36.382Z,99855.69
2023-02-11T04:51:39.453Z,99848.34
2023-02-11T04:52:42.465Z,99842.88
2023-02-11T04:53:45.456Z,99840.81
2023-02-11T04:54:48.432Z,99836.91
2023-02-11T04:55:52.471Z,99845.09
2023-02-11T04:56:55.594Z,99845.41
2023-02-11T04:57:58.722Z,99848.00
2023-02-11T04:59:02.953Z,99842.53
2023-02-11T05:00:06.729Z,99841.72
2023-02-11T05:01:15.260Z,99837.72
2023-02-11T05:02:18.307Z,99845.09
2023-02-11T05:03:21.222Z,99846.84
2023-02-11T05:04:24.280Z,99851.84
2023-02-11T05:05:27.320Z,99845.72
2023-02-11T05:06:30.300Z,99841.19
2023-02-11T05:07:33.969Z,99846.00
2023-02-11T05:08:37.026Z,99842.03
2023-02-11T05:09:40.541Z,99847.59
2023-02-11T05:10:47.397Z,99853.41
2023-02-11T05:11:50.473Z,99848.28
2023-02-11T05:12:55.726Z,99856.91
2023-02-11T05:13:59.224Z,99848.87
2023-02-11T05:15:02.312Z,99841.69
2023-02-11T05:16:05.831Z,99853.38
2023-02-11T05:17:09.183Z,99844.59
2023-02-11T05:18:12.444Z,99852.09
2023-02-11T05:19:15.421Z,99853.69
2023-02-11T05:20:18.623Z,99848.44
2023-02-11T05:21:21.660Z,99842.34
2023-02-11T05:22:24.759Z,99847.97
2023-02-11T05:23:28.061Z,99843.16
2023-02-11T05:24:32.931Z,99844.47
2023-02-11T05:25:36.063Z,99842.53
2023-02-11T05:26:38.959Z,99840.47
2023-02-11T05:27:42.068Z,99843.47
2023-02-11T05:28:45.768Z,99847.19
2023-02-11T05:29:49.316Z,99841.13
2023-02-11T05:30:52.260Z,99832.13
2023-02-11T05:31:55.399Z,99840.28
2023-02-11T05:32:58.669Z,99837.91
2023-02-11T05:34:04.461Z,99833.87
2023-02-11T05:35:08.369Z,99830.50
2023-02-11T05:36:13.736Z,99831.97
2023-02-11T05:37:17.631Z,99826.22
2023-02-11T05:38:20.823Z,99831.63
2023-02-11T05:39:23.899Z,99830.06
2023-02-11T05:40:26.925Z,99835.97
2023-02-11T05:41:30.033Z,99830.03
2023-02-11T05:42:33.226Z,99833.09
2023-02-11T05:43:36.920Z,99827.94
2023-02-11T05:44:40.118Z,99825.87
2023-02-11T05:45:43.596Z,99825.06
2023-02-11T05:46:46.965Z,99819.47
2023-02-11T05:47:50.339Z,99827.94
2023-02-11T05:48:53.564Z,99820.91
2023-02-11T05:49:56.761Z,99817.72
2023-02-11T05:50:59.885Z,99824.41
2023-02-11T05:52:02.908Z,99818.16
2023-02-11T05:53:07.144Z,99823.13
2023-02-11T05:54:10.785Z,99821.25
2023-02-11T05:55:14.081Z,99825.69
2023-02-11T05:56:17.364Z,99830.66
2023-02-11T05:57:20.588Z,99826.81
2023-02-11T05:58:23.610Z,99824.44
2023-02-11T05:59:26.837Z,99828.72
2023-02-11T06:00:29.884Z,99831.47
2023-02-11T06:01:32.961Z,99830.38
2023-02-11T06:02:36.067Z,99826.66
2023-02-11T06:03:39.352Z,99827.78
2023-02-11T06:04:42.458Z,99825.84
2023-02-11T06:05:46.272Z,99830.69
2023-02-11T06:06:49.748Z,99831.84
2023-02-11T06:07:53.226Z,99832.94
2023-02-11T06:08:56.729Z,99830.22
2023-02-11T06:10:00.846Z,99827.03
2023-02-11T06:11:04.191Z,99834.22
2023-02-11T06:12:07.458Z,99830.22
2023-02-11T06:13:10.425Z,99835.03
2023-02-11T06:14:14.640Z,99836.47
2023-02-11T06:15:17.647Z,99837.91
2023-02-11T06:16:20.796Z,99834.22
2023-02-11T06:17:23.890Z,99829.28
2023-02-11T06:18:27.086Z,99835.22
2023-02-11T06:19:31.412Z,99829.28
2023-02-11T06:20:34.449Z,99827.69
2023-02-11T06:21:43.944Z,99828.47
2023-02-11T06:22:47.583Z,99826.56
2023-02-11T06:23:50.626Z,99825.13
2023-02-11T06:25:01.365Z,99819.53
2023-02-11T06:26:07.632Z,99815.53
2023-02-11T06:27:10.696Z,99807.38
2023-02-11T06:28:13.962Z,99811.50
2023-02-11T06:29:17.622Z,99815.53
2023-02-11T06:30:20.782Z,99814.41
2023-02-11T06:31:23.951Z,99814.22
2023-02-11T06:32:45.746Z,99815.66
2023-02-11T06:33:50.444Z,99817.28
2023-02-11T06:34:53.526Z,99819.06
2023-02-11T06:35:56.533Z,99826.75
2023-02-11T06:36:59.798Z,99836.81
2023-02-11T06:38:02.921Z,99830.59
2023-02-11T06:39:06.263Z,99824.94
2023-02-11T06:40:10.349Z,99820.31
2023-02-11T06:41:15.788Z,99820.00
2023-02-11T06:42:18.717Z,99818.03
2023-02-11T06:43:21.825Z,99818.19
2023-02-11T06:44:25.261Z,99817.09
2023-02-11T06:45:28.505Z,99814.03
2023-02-11T06:46:31.744Z,99816.63
2023-02-11T06:47:35.058Z,99819.81
2023-02-11T06:48:38.618Z,99816.13
2023-02-11T06:49:41.827Z,99816.28
2023-02-11T06:50:44.796Z,99816.13
2023-02-11T06:51:47.883Z,99809.53
2023-02-11T06:52:50.911Z,99810.63
2023-02-11T06:53:53.869Z,99815.12
2023-02-11T06:54:56.882Z,99808.50
2023-02-11T06:56:07.662Z,99810.72
2023-02-11T06:57:10.443Z,99809.13
2023-02-11T06:58:13.489Z,99812.34
2023-02-11T06:59:18.814Z,99810.22
2023-02-11T07:00:21.938Z,99816.63
2023-02-11T07:01:26.814Z,99812.56
2023-02-11T07:02:30.322Z,99802.22
2023-02-11T07:03:36.378Z,99809.06
2023-02-11T07:04:39.353Z,99806.81
2023-02-11T07:05:45.060Z,99806.66
2023-02-11T07:06:48.176Z,99806.81
2023-02-11T07:07:51.349Z,99804.66
2023-02-11T07:08:55.851Z,99806.09
2023-02-11T07:09:58.903Z,99804.97
2023-02-11T07:11:02.287Z,99809.91
2023-02-11T07:12:05.407Z,99805.88
2023-02-11T07:13:08.714Z,99809.19
2023-02-11T07:14:13.681Z,99803.91
2023-02-11T07:15:16.785Z,99801.00
2023-02-11T07:16:20.769Z,99804.03
2023-02-11T07:17:24.043Z,99803.22
2023-02-11T07:18:27.315Z,99802.69
2023-02-11T07:19:30.862Z,99797.47
2023-02-11T07:20:34.022Z,99807.69
2023-02-11T07:21:37.210Z,99797.63
2023-02-11T07:22:40.695Z,99805.34
2023-02-11T07:23:44.017Z,99809.09
2023-02-11T07:24:47.061Z,99809.22
2023-02-11T07:25:50.239Z,99808.56
2023-02-11T07:26:54.154Z,99807.25
2023-02-11T07:27:57.288Z,99809.78
2023-02-11T07:29:00.365Z,99808.03
2023-02-11T07:30:07.221Z,99809.00
2023-02-11T07:31:19.306Z,99797.47
2023-02-11T07:32:22.474Z,99802.81
2023-02-11T07:33:25.502Z,99805.09
2023-02-11T07:34:28.727Z,99797.66
2023-02-11T07:35:31.968Z,99802.72
2023-02-11T07:36:35.123Z,99796.44
2023-02-11T07:37:38.060Z,99796.22
2023-02-11T07:38:41.715Z,99801.03
2023-02-11T07:39:44.639Z,99793.31
2023-02-11T07:40:47.751Z,99794.81
2023-02-11T07:41:50.959Z,99793.03
2023-02-11T07:42:53.990Z,99798.19
2023-02-11T07:43:57.337Z,99790.56
2023-02-11T07:45:00.382Z,99801.06
2023-02-11T07:46:12.827Z,99792.41
2023-02-11T07:47:16.045Z,99791.72
2023-02-11T07:48:19.137Z,99791.00
2023-02-11T07:49:22.268Z,99778.09
2023-02-11T07:50:25.473Z,99791.75
2023-02-11T07:51:31.660Z,99789.03
2023-02-11T07:52:34.840Z,99794.03
2023-02-11T07:53:38.805Z,99786.84
2023-02-11T07:54:41.846Z,99790.03
2023-02-11T07:55:44.907Z,99786.66
2023-02-11T07:56:47.793Z,99783.72
2023-02-11T07:57:51.127Z,99779.72
2023-02-11T07:58:55.172Z,99780.53
2023-02-11T07:59:58.346Z,99775.28
2023-02-11T08:01:06.539Z,99773.78
2023-02-11T08:02:09.951Z,99769.28
2023-02-11T08:03:13.082Z,99780.87
2023-02-11T08:04:16.169Z,99780.63
2023-02-11T08:05:19.146Z,99777.84
2023-02-11T08:06:24.705Z,99781.13
2023-02-11T08:07:30.071Z,99776.34
2023-02-11T08:08:33.590Z,99775.53
2023-02-11T08:09:36.874Z,99777.81
2023-02-11T08:10:40.333Z,99783.25
2023-02-11T08:11:44.180Z,99783.66
2023-02-11T08:12:47.489Z,99778.09
2023-02-11T08:13:50.589Z,99774.41
2023-02-11T08:14:53.774Z,99774.81
2023-02-11T08:15:57.998Z,99774.91
2023-02-11T08:17:01.138Z,99769.81
2023-02-11T08:18:04.368Z,99771.47
2023-02-11T08:19:13.048Z,99781.75
2023-02-11T08:20:16.181Z,99778.78
2023-02-11T08:21:20.572Z,99780.59
2023-02-11T08:22:23.597Z,99784.38
2023-02-11T08:23:26.498Z,99780.44
2023-02-11T08:24:29.482Z,99782.56
2023-02-11T08:25:33.118Z,99782.06
2023-02-11T08:26:36.904Z,99780.84
2023-02-11T08:27:40.119Z,99779.87
2023-02-11T08:28:44.927Z,99774.72
2023-02-11T08:29:48.060Z,99780.91
2023-02-11T08:30:51.499Z,99774.59
2023-02-11T08:31:54.891Z,99786.81
2023-02-11T08:32:58.103Z,99776.94
2023-02-11T08:34:02.678Z,99776.88
2023-02-11T08:35:09.442Z,99774.75
2023-02-11T08:36:20.365Z,99775.03
2023-02-11T08:37:23.502Z,99779.56
2023-02-11T08:38:27.218Z,99780.19
2023-02-11T08:39:30.247Z,99780.53
2023-02-11T08:40:33.759Z,99782.97
2023-02-11T08:41:36.925Z,99784.84
2023-02-11T08:42:39.992Z,99785.38
2023-02-11T08:43:44.336Z,99786.91
2023-02-11T08:44:47.418Z,99784.59
2023-02-11T08:45:50.615Z,99787.37
2023-02-11T08:46:54.404Z,99788.16
2023-02-11T08:47:57.371Z,99786.56
2023-02-11T08:49:00.578Z,99787.19
2023-02-11T08:50:04.600Z,99785.81
2023-02-11T08:51:14.349Z,99786.38
2023-02-11T08:52:17.379Z,99777.44
2023-02-11T08:53:20.339Z,99780.97
2023-02-11T08:54:23.312Z,99774.22
2023-02-11T08:55:26.299Z,99780.75
2023-02-11T08:56:31.889Z,99777.66
2023-02-11T08:57:35.752Z,99769.56
2023-02-11T08:58:39.101Z,99783.09
2023-02-11T08:59:42.229Z,99774.66
2023-02-11T09:00:45.716Z,99767.25
2023-02-11T09:01:49.169Z,99772.91
2023-02-11T09:02:52.302Z,99775.38
2023-02-11T09:03:56.505Z,99774.84
2023-02-11T09:04:59.389Z,99778.09
2023-02-11T09:06:06.568Z,99773.84
2023-02-11T09:07:10.052Z,99776.19
2023-02-11T09:08:14.328Z,99771.28
2023-02-11T09:09:17.706Z,99771.41
2023-02-11T09:10:20.759Z,99766.81
2023-02-11T09:11:30.885Z,99770.19
2023-02-11T09:12:33.832Z,99757.87
2023-02-11T09:13:37.308Z,99756.87
2023-02-11T09:14:41.860Z,99754.44
2023-02-11T09:15:47.974Z,99751.69
2023-02-11T09:16:52.081Z,99757.63
2023-02-11T09:17:55.233Z,99750.53
2023-02-11T09:18:59.960Z,99755.78
2023-02-11T09:20:03.727Z,99755.22
2023-02-11T09:21:09.358Z,99759.25
2023-02-11T09:22:12.547Z,99757.84
2023-02-11T09:23:18.312Z,99757.44
2023-02-11T09:24:21.728Z,99752.66
2023-02-11T09:25:25.568Z,99751.06
2023-02-11T09:26:31.927Z,99752.22
2023-02-11T09:27:34.903Z,99750.06
2023-02-11T09:28:37.971Z,99750.97
2023-02-11T09:29:41.267Z,99754.25
2023-02-11T09:30:44.436Z,99754.03
2023-02-11T09:31:47.640Z,99747.06
2023-02-11T09:32:50.878Z,99750.53
2023-02-11T09:33:56.871Z,99745.56
2023-02-11T09:34:59.749Z,99756.00
2023-02-11T09:36:04.305Z,99756.87
2023-02-11T09:37:07.408Z,99754.81
2023-02-11T09:38:10.385Z,99749.16
2023-02-11T09:39:17.644Z,99744.50
2023-02-11T09:40:21.598Z,99748.16
2023-02-11T09:41:24.926Z,99742.06
2023-02-11T09:43:01.789Z,99746.62
2023-02-11T09:44:10.910Z,99743.41
2023-02-11T09:45:22.557Z,99737.38
2023-02-11T09:46:28.218Z,99733.31
2023-02-11T09:47:40.513Z,99745.69
2023-02-11T09:48:46.096Z,99740.16
2023-02-11T09:49:53.361Z,99742.75
2023-02-11T09:51:00.511Z,99739.63
2023-02-11T09:52:13.732Z,99736.25
2023-02-11T09:53:25.882Z,99732.84
2023-02-11T09:54:34.367Z,99734.75
2023-02-11T09:55:43.047Z,99744.97
2023-02-11T09:56:46.155Z,99737.72
2023-02-11T09:57:49.551Z,99732.38
2023-02-11T09:58:55.179Z,99728.63
2023-02-11T09:59:58.674Z,99736.78
2023-02-11T10:01:08.041Z,99725.25
2023-02-11T10:02:27.723Z,99731.25
2023-02-11T10:04:06.916Z,99738.84
2023-02-11T10:05:41.814Z,99733.34
2023-02-11T10:06:50.878Z,99733.56
2023-02-11T10:08:16.993Z,99735.19
2023-02-11T10:09:47.803Z,99727.34
2023-02-11T10:10:57.089Z,99738.31
2023-02-11T10:12:11.992Z,99723.50
2023-02-11T10:13:51.023Z,99724.22
2023-02-11T10:14:53.820Z,99727.00
2023-02-11T10:16:05.915Z,99728.09
2023-02-11T10:17:32.078Z,99719.25
2023-02-11T10:18:35.168Z,99720.31
2023-02-11T10:19:53.029Z,99723.09
2023-02-11T10:21:20.818Z,99728.19
2023-02-11T10:22:33.756Z,99721.50
2023-02-11T10:23:41.557Z,99726.97
2023-02-11T10:24:58.588Z,99714.81
2023-02-11T10:26:01.806Z,99716.00
2023-02-11T10:27:19.780Z,99718.19
2023-02-11T10:28:29.131Z,99716.28
2023-02-11T10:29:44.592Z,99716.97
2023-02-11T10:31:05.326Z,99711.37
2023-02-11T10:32:24.918Z,99707.88
2023-02-11T10:33:48.221Z,99705.06
2023-02-11T10:34:53.184Z,99703.69
2023-02-11T10:35:56.346Z,99706.50
2023-02-11T10:36:59.427Z,99702.97
2023-02-11T10:38:02.599Z,99692.00
2023-02-11T10:39:26.172Z,99702.97
2023-02-11T10:40:31.088Z,99692.28
2023-02-11T10:41:38.811Z,99696.19
2023-02-11T10:42:44.768Z,99703.03
2023-02-11T10:43:47.725Z,99691.00
2023-02-11T10:45:04.433Z,99690.84
2023-02-11T10:46:18.849Z,99692.28
2023-02-11T10:47:25.778Z,99687.22
2023-02-11T10:48:51.770Z,99683.38
2023-02-11T10:49:55.122Z,99678.91
2023-02-11T10:51:14.556Z,99673.75
2023-02-11T10:52:26.279Z,99671.34
2023-02-11T10:53:29.525Z,99669.47
2023-02-11T10:54:32.476Z,99675.97
2023-02-11T10:55:36.387Z,99669.88
2023-02-11T10:56:46.118Z,99673.50
2023-02-11T10:58:01.998Z,99672.72
2023-02-11T10:59:14.924Z,99674.31
2023-02-11T11:00:23.810Z,99673.78
2023-02-11T11:01:53.601Z,99672.03
2023-02-11T11:02:59.867Z,99676.00
2023-02-11T11:04:03.230Z,99674.56
2023-02-11T11:05:19.287Z,99657.78
2023-02-11T11:06:33.728Z,99666.66
2023-02-11T11:07:37.785Z,99662.22
2023-02-11T11:08:52.063Z,99658.97
2023-02-11T11:09:59.918Z,99652.41
2023-02-11T11:11:07.587Z,99652.88
2023-02-11T11:12:31.213Z,99654.31
2023-02-11T11:13:37.112Z,99643.25
2023-02-11T11:14:40.111Z,99648.41
2023-02-11T11:15:43.215Z,99645.97
2023-02-11T11:16:54.811Z,99641.50
2023-02-11T11:18:22.632Z,99632.84
2023-02-11T11:19:28.220Z,99626.06
2023-02-11T11:20:36.764Z,99621.88
2023-02-11T11:21:49.812Z,99624.28
2023-02-11T11:23:07.891Z,99622.66
2023-02-11T11:24:29.694Z,99629.63
2023-02-11T11:25:32.901Z,99626.19
2023-02-11T11:26:43.212Z,99620.97
2023-02-11T11:27:50.879Z,99615.75
2023-02-11T11:28:59.403Z,99626.13
2023-02-11T11:30:03.604Z,99621.47
2023-02-11T11:31:15.119Z,99625.34
2023-02-11T11:32:26.187Z,99635.06
2023-02-11T11:33:34.360Z,99626.69
2023-02-11T11:34:48.913Z,99619.09
2023-02-11T11:36:10.023Z,99628.25
2023-02-11T11:37:13.055Z,99614.53
2023-02-11T11:38:16.078Z,99616.69
2023-02-11T11:39:24.076Z,99612.97
2023-02-11T11:40:32.672Z,99615.78
2023-02-11T11:41:35.772Z,99611.47
2023-02-11T11:42:40.209Z,99608.94
2023-02-11T11:44:01.464Z,99601.28
2023-02-11T11:45:16.446Z,99605.19
2023-02-11T11:46:25.286Z,99600.91
2023-02-11T11:47:50.489Z,99607.41
2023-02-11T11:49:04.379Z,99598.25
2023-02-11T11:50:35.677Z,99596.69
2023-02-11T11:51:42.450Z,99598.97
2023-02-11T11:53:20.686Z,99592.97
2023-02-11T11:54:26.333Z,99593.62
2023-02-11T11:55:39.527Z,99577.34
2023-02-11T11:56:57.031Z,99587.34
2023-02-11T11:58:00.263Z,99581.72
2023-02-11T11:59:13.638Z,99581.19
2023-02-11T12:00:37.267Z,99577.19
2023-02-11T12:01:46.042Z,99577.81
2023-02-11T12:03:23.004Z,99581.56
2023-02-11T12:04:31.891Z,99577.81
2023-02-11T12:05:52.748Z,99584.03
2023-02-11T12:07:12.319Z,99572.94
2023-02-11T12:08:54.315Z,99570.91
2023-02-11T12:10:15.557Z,99565.53
2023-02-11T12:11:57.648Z,99566.22
2023-02-11T12:13:19.361Z,99559.19
2023-02-11T12:14:41.106Z,99550.28
2023-02-11T12:15:53.502Z,99556.28
2023-02-11T12:17:31.888Z,99549.66
2023-02-11T12:19:03.536Z,99543.69
2023-02-11T12:20:28.457Z,99536.75
2023-02-11T12:21:34.720Z,99531.91
2023-02-11T12:23:18.673Z,99530.06
2023-02-11T12:24:52.543Z,99535.03
2023-02-11T12:26:01.350Z,99517.19
2023-02-11T12:27:28.890Z,99515.44
2023-02-11T12:28:59.360Z,99511.56
2023-02-11T12:30:26.820Z,99505.41
2023-02-11T12:31:30.042Z,99501.56
2023-02-11T12:32:48.695Z,99497.09
2023-02-11T12:34:13.236Z,99511.69
2023-02-11T12:35:21.913Z,99508.50
2023-02-11T12:36:43.435Z,99514.22
2023-02-11T12:37:56.370Z,99514.34
2023-02-11T12:39:26.455Z,99514.59
2023-02-11T12:40:50.638Z,99511.66
2023-02-11T12:42:23.316Z,99501.41
2023-02-11T12:43:39.214Z,99512.56
2023-02-11T12:44:54.828Z,99504.28
2023-02-11T12:46:01.228Z,99510.69
2023-02-11T12:47:10.770Z,99511.06
2023-02-11T12:48:49.403Z,99511.00
2023-02-11T12:50:08.979Z,99513.59
2023-02-11T12:51:42.503Z,99510.53
2023-02-11T12:52:57.780Z,99511.69
2023-02-11T12:54:06.788Z,99500.47
2023-02-11T12:55:25.791Z,99505.84
2023-02-11T12:56:34.846Z,99495.84
2023-02-11T12:57:41.154Z,99490.00
2023-02-11T12:58:47.002Z,99486.28
2023-02-11T13:00:25.396Z,99492.47
2023-02-11T13:01:41.461Z,99495.12
2023-02-11T13:03:00.475Z,99488.63
2023-02-11T13:04:09.880Z,99487.31
2023-02-11T13:05:20.657Z,99492.06
2023-02-11T13:06:49.964Z,99484.28
2023-02-11T13:07:59.274Z,99488.28
2023-02-11T13:09:06.356Z,99492.53
2023-02-11T13:10:27.377Z,99494.97
2023-02-11T13:11:38.162Z,99483.59
2023-02-11T13:13:04.722Z,99486.78
2023-02-11T13:14:22.925Z,99477.59
2023-02-11T13:15:27.119Z,99475.63
2023-02-11T13:16:43.030Z,99473.91
2023-02-11T13:18:01.326Z,99477.56
2023-02-11T13:19:30.322Z,99477.59
2023-02-11T13:20:52.803Z,99473.59